createdAt,value
2023-04-17T00:02:41.602Z,2.72
2023-04-17T00:07:48.610Z,2.64
2023-04-17T00:18:01.199Z,2.76
2023-04-17T00:23:08.286Z,2.23
2023-04-17T00:28:15.514Z,2.71
2023-04-17T00:33:22.697Z,2.46
2023-04-17T00:38:29.942Z,2.58
2023-04-17T00:43:37.214Z,2.35
2023-04-17T00:48:44.442Z,2.52
2023-04-17T00:53:51.690Z,2.46
2023-04-17T00:58:59.249Z,2.36
2023-04-17T01:04:06.612Z,2.58
2023-04-17T01:09:14.056Z,2.47
2023-04-17T01:14:21.307Z,2.46
2023-04-17T01:19:28.547Z,2.67
2023-04-17T01:24:35.796Z,2.51
2023-04-17T01:29:43.062Z,2.53
2023-04-17T01:34:50.292Z,2.70
2023-04-17T01:39:57.637Z,2.55
2023-04-17T01:45:05.154Z,2.58
2023-04-17T01:50:12.556Z,2.42
2023-04-17T01:55:19.770Z,2.67
2023-04-17T02:00:27.058Z,2.42
2023-04-17T02:05:34.295Z,2.27
2023-04-17T02:10:41.522Z,2.21
2023-04-17T02:15:48.851Z,2.41
2023-04-17T02:20:56.120Z,2.13
2023-04-17T02:26:03.329Z,2.26
2023-04-17T02:31:10.615Z,2.10
2023-04-17T02:36:17.774Z,1.99
2023-04-17T02:41:25.068Z,2.37
2023-04-17T02:46:32.378Z,2.13
2023-04-17T02:51:39.652Z,2.11
2023-04-17T02:56:46.805Z,2.01
2023-04-17T03:01:54.083Z,1.91
2023-04-17T03:07:01.251Z,1.99
2023-04-17T03:12:08.467Z,2.07
2023-04-17T03:17:15.657Z,1.86
2023-04-17T03:22:23.147Z,2.00
2023-04-17T03:27:30.393Z,1.88
2023-04-17T03:32:37.760Z,1.89
2023-04-17T03:37:44.985Z,1.99
2023-04-17T03:42:52.190Z,2.14
2023-04-17T03:47:59.410Z,1.91
2023-04-17T03:53:06.607Z,1.99
2023-04-17T03:58:13.898Z,1.80
2023-04-17T04:03:21.378Z,1.87
2023-04-17T04:08:28.393Z,1.91
2023-04-17T04:13:35.812Z,1.83
2023-04-17T04:18:42.973Z,1.81
2023-04-17T04:23:50.231Z,1.69
2023-04-17T04:28:57.704Z,1.85
2023-04-17T04:34:04.951Z,1.67
2023-04-17T04:39:12.322Z,1.87
2023-04-17T04:44:19.449Z,1.91
2023-04-17T04:49:26.617Z,1.86
2023-04-17T04:54:33.940Z,1.83
2023-04-17T04:59:41.224Z,1.72
2023-04-17T05:04:48.532Z,2.08
2023-04-17T05:09:55.786Z,1.68
2023-04-17T05:15:03.008Z,1.80
2023-04-17T05:20:10.235Z,1.87
2023-04-17T05:25:17.634Z,1.67
2023-04-17T05:30:24.831Z,1.70
2023-04-17T05:35:32.133Z,1.68
2023-04-17T05:40:39.377Z,1.59
2023-04-17T05:45:46.638Z,1.60
2023-04-17T05:50:53.758Z,1.44
2023-04-17T05:56:00.979Z,1.28
2023-04-17T06:01:08.165Z,1.51
2023-04-17T06:06:15.375Z,1.49
2023-04-17T06:11:22.599Z,1.48
2023-04-17T06:16:30.321Z,1.46
2023-04-17T06:21:37.538Z,1.39
2023-04-17T06:26:44.812Z,1.34
2023-04-17T06:31:52.095Z,1.16
2023-04-17T06:36:59.442Z,1.30
2023-04-17T06:42:06.875Z,1.19
2023-04-17T06:47:14.184Z,1.19
2023-04-17T06:52:21.428Z,1.19
2023-04-17T06:57:28.634Z,1.23
2023-04-17T07:02:36.048Z,1.12
2023-04-17T07:07:43.426Z,1.01
2023-04-17T07:12:50.698Z,0.97
2023-04-17T07:17:58.052Z,1.02
2023-04-17T07:23:05.187Z,0.92
2023-04-17T07:28:12.491Z,0.89
2023-04-17T07:33:19.711Z,0.96
2023-04-17T07:38:26.960Z,0.91
2023-04-17T07:43:34.195Z,1.03
2023-04-17T07:48:41.406Z,0.96
2023-04-17T07:53:49.141Z,1.13
2023-04-17T07:58:56.362Z,0.96
2023-04-17T08:04:03.705Z,1.13
2023-04-17T08:09:11.019Z,1.09
2023-04-17T08:14:17.541Z,1.01
2023-04-17T08:19:24.812Z,0.95
2023-04-17T08:24:32.111Z,1.11
2023-04-17T08:29:47.674Z,1.14
2023-04-17T08:34:45.004Z,1.20
2023-04-17T08:39:56.544Z,0.89
2023-04-17T08:44:54.320Z,1.09
2023-04-17T08:55:05.429Z,1.00
2023-04-17T09:00:13.971Z,0.93
2023-04-17T09:05:21.449Z,1.18
2023-04-17T09:10:30.430Z,1.06
2023-04-17T09:15:37.884Z,1.04
2023-04-17T09:20:46.988Z,1.08
2023-04-17T09:25:54.428Z,0.81
2023-04-17T09:31:02.014Z,1.05
2023-04-17T09:41:15.483Z,0.94
2023-04-17T09:46:22.803Z,1.06
2023-04-17T09:51:30.940Z,0.85
2023-04-17T09:56:47.705Z,0.75
2023-04-17T10:01:45.248Z,0.61
2023-04-17T10:06:52.758Z,0.68
2023-04-17T10:12:00.287Z,0.88
2023-04-17T10:17:07.714Z,0.69
2023-04-17T10:22:15.280Z,0.70
2023-04-17T10:27:22.724Z,0.86
2023-04-17T10:37:37.668Z,0.64
2023-04-17T10:42:50.240Z,0.80
2023-04-17T10:47:47.641Z,0.77
2023-04-17T10:52:59.894Z,0.75
2023-04-17T10:57:57.311Z,0.79
2023-04-17T11:03:12.958Z,0.70
2023-04-17T11:08:10.178Z,0.79
2023-04-17T11:13:21.038Z,0.72
2023-04-17T11:18:18.461Z,0.87
2023-04-17T11:23:28.868Z,0.72
2023-04-17T11:28:26.252Z,0.95
2023-04-17T11:33:45.019Z,0.84
2023-04-17T11:38:42.396Z,0.85
2023-04-17T11:43:49.963Z,0.97
2023-04-17T11:48:57.404Z,1.17
2023-04-17T11:54:04.799Z,1.22
2023-04-17T12:04:19.152Z,1.16
2023-04-17T12:14:29.843Z,1.14
2023-04-17T12:19:42.541Z,1.12
2023-04-17T12:24:39.987Z,0.97
2023-04-17T12:29:56.989Z,1.19
2023-04-17T12:34:54.445Z,1.08
2023-04-17T12:40:05.536Z,1.39
2023-04-17T12:45:02.939Z,1.34
2023-04-17T12:50:11.640Z,0.83
2023-04-17T12:55:19.037Z,1.05
2023-04-17T13:00:26.562Z,1.25
2023-04-17T13:05:33.928Z,1.08
2023-04-17T13:10:41.412Z,1.06
2023-04-17T13:20:55.759Z,1.21
2023-04-17T13:31:04.672Z,0.94
2023-04-17T13:41:13.582Z,1.05
2023-04-17T13:51:21.598Z,0.94
2023-04-17T14:01:29.753Z,1.11
2023-04-17T14:11:37.772Z,1.02
2023-04-17T14:21:46.664Z,1.01
2023-04-17T14:31:54.855Z,0.98
2023-04-17T14:42:02.733Z,1.00
2023-04-17T14:52:11.693Z,1.07
2023-04-17T15:02:19.772Z,0.94
2023-04-17T15:07:28.669Z,0.92
2023-04-17T15:12:36.093Z,0.92
2023-04-17T15:17:43.646Z,0.79
2023-04-17T15:22:50.766Z,0.93
2023-04-17T15:27:57.929Z,1.10
2023-04-17T15:33:06.283Z,0.93
2023-04-17T15:38:11.998Z,0.84
2023-04-17T15:43:19.784Z,0.80
2023-04-17T15:48:27.034Z,0.95
2023-04-17T15:58:37.679Z,0.83
2023-04-17T16:08:46.437Z,0.73
2023-04-17T16:13:50.866Z,0.68
2023-04-17T16:18:58.180Z,0.72
2023-04-17T16:24:17.281Z,0.59
2023-04-17T16:29:15.090Z,0.69
2023-04-17T16:34:22.362Z,0.77
2023-04-17T16:39:29.974Z,0.87
2023-04-17T16:44:37.538Z,0.75
2023-04-17T16:49:44.914Z,0.61
2023-04-17T16:54:52.218Z,0.82
2023-04-17T17:00:06.387Z,0.62
2023-04-17T17:05:03.833Z,0.64
2023-04-17T17:10:11.149Z,0.69
2023-04-17T17:15:19.644Z,0.69
2023-04-17T17:20:31.342Z,0.57
2023-04-17T17:25:28.516Z,0.67
2023-04-17T17:30:40.402Z,0.74
2023-04-17T17:35:37.823Z,0.61
2023-04-17T17:40:45.813Z,0.90
2023-04-17T17:45:53.134Z,0.84
2023-04-17T17:51:00.435Z,0.69
2023-04-17T17:56:07.860Z,0.80
2023-04-17T18:01:15.965Z,0.83
2023-04-17T18:12:11.665Z,0.77
2023-04-17T18:16:42.333Z,0.71
2023-04-17T18:21:39.632Z,0.96
2023-04-17T18:26:46.876Z,0.79
2023-04-17T18:31:54.255Z,0.78
2023-04-17T18:37:01.352Z,0.93
2023-04-17T18:42:08.711Z,0.99
2023-04-17T18:47:16.001Z,0.85
2023-04-17T18:52:23.333Z,0.85
2023-04-17T18:57:30.794Z,0.82
2023-04-17T19:02:38.291Z,0.90
2023-04-17T19:07:45.404Z,0.85
2023-04-17T19:12:52.747Z,0.77
2023-04-17T19:18:00.247Z,0.76
2023-04-17T19:23:07.397Z,0.84
2023-04-17T19:28:14.619Z,0.80
2023-04-17T19:33:21.867Z,0.96
2023-04-17T19:38:29.120Z,0.83
2023-04-17T19:43:36.429Z,1.03
2023-04-17T19:48:43.681Z,0.96
2023-04-17T19:53:50.961Z,1.66
2023-04-17T19:58:58.158Z,1.67
2023-04-17T20:04:05.566Z,1.25
2023-04-17T20:09:14.822Z,1.25
2023-04-17T20:14:19.707Z,1.17
2023-04-17T20:19:27.031Z,1.05
2023-04-17T20:24:34.480Z,1.05
2023-04-17T20:29:41.654Z,1.26
2023-04-17T20:34:49.141Z,1.14
2023-04-17T20:39:56.384Z,1.22
2023-04-17T20:45:03.746Z,1.20
2023-04-17T20:50:10.972Z,1.23
2023-04-17T20:55:18.289Z,4.45
2023-04-17T21:00:25.542Z,4.15
2023-04-17T21:05:32.822Z,2.83
2023-04-17T21:10:40.340Z,2.49
2023-04-17T21:15:48.091Z,2.42
2023-04-17T21:20:55.327Z,3.48
2023-04-17T21:26:02.865Z,1.68
2023-04-17T21:31:10.145Z,1.26
2023-04-17T21:36:17.349Z,1.11
2023-04-17T21:41:24.493Z,1.39
2023-04-17T21:46:31.876Z,1.47
2023-04-17T21:51:39.023Z,1.73
2023-04-17T21:56:46.292Z,3.74
2023-04-17T22:01:53.834Z,1.56
2023-04-17T22:07:01.188Z,1.13
2023-04-17T22:12:08.361Z,1.25
2023-04-17T22:17:15.729Z,1.20
2023-04-17T22:22:22.890Z,1.25
2023-04-17T22:27:30.102Z,1.28
2023-04-17T22:32:37.268Z,1.29
2023-04-17T22:37:44.846Z,1.30
2023-04-17T22:42:52.015Z,1.34
2023-04-17T22:47:59.386Z,1.51
2023-04-17T22:53:06.523Z,1.22
2023-04-17T22:58:13.712Z,1.42
2023-04-17T23:03:21.026Z,1.33
2023-04-17T23:08:28.367Z,1.45
2023-04-17T23:13:35.562Z,1.66
2023-04-17T23:18:42.890Z,1.59
2023-04-17T23:23:50.412Z,1.52
2023-04-17T23:28:57.671Z,1.54
2023-04-17T23:34:04.840Z,1.77
2023-04-17T23:39:12.434Z,1.55
2023-04-17T23:44:19.635Z,1.36
2023-04-17T23:49:26.937Z,1.65
2023-04-17T23:54:34.225Z,1.52
2023-04-17T23:59:41.426Z,1.56
